Time;durP1;ratioP1;P1;durP2;ratioP2;P2;SDS_P1;SDS_P2;PMS_P1;PMS_P2;Temp;Humidity;BMP_temperature;BMP_pressure;BME280_temperature;BME280_humidity;BME280_pressure;Samples;Min_cycle;Max_cycle;Signal;HPM_P1;HPM_P2
2023/10/16 00:01:10;;;;;;;5.70;2.45;;;;;;;8.20;80.71;97891.06;5056595;28;20067;-59
2023/10/16 00:03:38;;;;;;;7.70;2.72;;;;;;;8.19;80.89;97877.06;5091807;28;20130;-59
2023/10/16 00:06:05;;;;;;;9.88;2.90;;;;;;;8.15;80.42;97883.94;5073919;28;20131;-60
2023/10/16 00:08:33;;;;;;;7.63;2.70;;;;;;;8.15;81.08;97872.59;5091973;28;20040;-60
2023/10/16 00:11:05;;;;;;;5.53;2.53;;;;;;;8.17;81.08;97867.81;5081678;28;20098;-59
2023/10/16 00:13:35;;;;;;;6.22;2.65;;;;;;;8.18;81.43;97858.88;5092095;28;20039;-60
2023/10/16 00:16:04;;;;;;;6.65;2.42;;;;;;;8.14;80.72;97869.13;5057646;28;20093;-61
2023/10/16 00:18:34;;;;;;;7.13;2.55;;;;;;;8.12;81.10;97870.47;5092289;28;20032;-60
2023/10/16 00:21:04;;;;;;;6.50;2.50;;;;;;;8.05;81.23;97856.69;5092007;28;20040;-62
2023/10/16 00:23:31;;;;;;;5.15;2.20;;;;;;;8.09;81.11;97861.22;5092175;28;20036;-62
2023/10/16 00:25:58;;;;;;;5.47;2.33;;;;;;;8.09;80.59;97866.50;5073660;28;20499;-61
2023/10/16 00:28:24;;;;;;;5.40;2.00;;;;;;;8.07;80.29;97865.16;5091964;28;20177;-61
2023/10/16 00:30:51;;;;;;;5.32;2.38;;;;;;;8.12;80.44;97870.47;5073333;28;20197;-59
2023/10/16 00:33:17;;;;;;;7.40;2.63;;;;;;;8.12;79.89;97870.47;5092088;28;20081;-61
2023/10/16 00:35:45;;;;;;;12.73;2.33;;;;;;;8.13;80.02;97869.41;5073354;28;20117;-61
2023/10/16 00:38:13;;;;;;;6.23;2.50;;;;;;;8.18;80.00;97874.72;5074000;28;20038;-60
2023/10/16 00:40:51;;;;;;;4.68;2.20;;;;;;;8.14;80.02;97881.53;5073330;28;20496;-61
2023/10/16 00:43:21;;;;;;;8.38;2.50;;;;;;;8.15;80.61;97883.94;5073549;28;20051;-61
2023/10/16 00:45:50;;;;;;;4.05;2.10;;;;;;;8.15;80.33;97881.28;5091310;28;20054;-60
2023/10/16 00:48:18;;;;;;;6.05;2.20;;;;;;;8.17;79.56;97873.91;5073843;28;20036;-60
2023/10/16 00:50:45;;;;;;;5.68;2.50;;;;;;;8.13;79.67;97885.25;5072428;28;20043;-61
2023/10/16 00:53:16;;;;;;;7.03;2.70;;;;;;;8.13;80.45;97880.75;5073354;28;20071;-60
2023/10/16 00:55:42;;;;;;;4.95;2.55;;;;;;;8.12;80.10;97884.44;5073243;28;20043;-60
2023/10/16 00:58:08;;;;;;;8.88;2.63;;;;;;;8.09;80.64;97881.50;5073018;28;20044;-61
2023/10/16 01:00:38;;;;;;;9.38;2.33;;;;;;;8.08;80.26;97879.94;5073234;28;20408;-61
2023/10/16 01:03:05;;;;;;;6.93;2.10;;;;;;;8.12;80.44;97884.44;5073224;28;20513;-60
2023/10/16 01:05:33;;;;;;;3.83;2.28;;;;;;;8.15;79.55;97881.28;5073097;28;20314;-60
2023/10/16 01:08:02;;;;;;;6.40;2.00;;;;;;;8.12;79.74;97896.84;5073166;28;20032;-60
2023/10/16 01:10:32;;;;;;;4.00;2.13;;;;;;;8.06;79.77;97892.59;5069232;28;20163;-60
2023/10/16 01:12:59;;;;;;;5.10;2.27;;;;;;;8.06;79.90;97897.88;5068912;28;20058;-60
2023/10/16 01:15:25;;;;;;;3.67;2.10;;;;;;;8.03;80.17;97901.84;5069553;28;20147;-60
2023/10/16 01:17:51;;;;;;;4.60;2.40;;;;;;;8.01;80.18;97901.28;5069218;28;20040;-60
2023/10/16 01:20:20;;;;;;;7.90;2.33;;;;;;;8.02;80.10;97894.94;5069356;28;20040;-62
2023/10/16 01:22:47;;;;;;;4.82;2.28;;;;;;;8.05;80.13;97889.16;5069118;28;20086;-59
2023/10/16 01:25:15;;;;;;;4.28;2.05;;;;;;;7.99;80.16;97892.03;5052373;28;20043;-60
2023/10/16 01:27:42;;;;;;;6.22;2.50;;;;;;;7.88;80.39;97886.72;5070239;28;20056;-61
2023/10/16 01:30:09;;;;;;;5.30;2.70;;;;;;;7.88;80.84;97883.25;5068917;28;20147;-59
2023/10/16 01:32:35;;;;;;;6.18;2.28;;;;;;;7.85;80.60;97886.41;5049562;28;20044;-60
2023/10/16 01:35:01;;;;;;;5.45;2.22;;;;;;;7.80;80.96;97879.28;5052001;28;20512;-61
2023/10/16 01:37:30;;;;;;;8.27;2.85;;;;;;;7.78;81.01;97877.94;5074027;28;20509;-62
2023/10/16 01:40:13;;;;;;;6.22;2.55;;;;;;;7.77;80.93;97885.06;5073666;28;20431;-61
2023/10/16 01:42:39;;;;;;;5.30;2.67;;;;;;;7.69;81.31;97869.72;5073710;28;20048;-60
2023/10/16 01:45:05;;;;;;;6.65;2.65;;;;;;;7.67;81.55;97869.19;5074780;28;20498;-60
2023/10/16 01:47:34;;;;;;;9.52;3.22;;;;;;;7.62;81.83;97869.16;5073098;28;20049;-61
2023/10/16 01:50:01;;;;;;;5.88;2.45;;;;;;;7.62;81.42;97863.91;5074941;28;20029;-60
2023/10/16 01:52:33;;;;;;;6.10;2.28;;;;;;;7.64;81.23;97880.25;5073545;28;20045;-60
2023/10/16 01:55:00;;;;;;;7.82;3.05;;;;;;;7.64;81.58;97874.97;5072174;28;20505;-58
2023/10/16 01:57:26;;;;;;;6.10;2.30;;;;;;;7.72;81.48;97869.22;5073337;28;20052;-61
2023/10/16 01:59:53;;;;;;;5.60;2.72;;;;;;;7.77;81.08;97866.63;5073427;28;20068;-61
2023/10/16 02:02:19;;;;;;;5.60;2.33;;;;;;;7.78;80.59;97868.19;5073151;28;20437;-60
2023/10/16 02:04:44;;;;;;;8.73;2.35;;;;;;;7.72;80.39;97867.38;5056458;28;20040;-60
2023/10/16 02:07:11;;;;;;;6.45;2.50;;;;;;;7.75;80.49;97863.44;5073068;28;20082;-61
2023/10/16 02:09:38;;;;;;;7.20;2.80;;;;;;;7.79;80.16;97850.50;5081415;28;20142;-60
2023/10/16 02:12:16;;;;;;;7.47;2.30;;;;;;;7.79;80.39;97853.94;5094638;28;20550;-61
2023/10/16 02:14:45;;;;;;;5.18;2.25;;;;;;;7.76;79.84;97857.09;5076468;28;20465;-59
2023/10/16 02:17:18;;;;;;;5.50;2.40;;;;;;;7.83;79.57;97854.25;5076225;28;20044;-61
2023/10/16 02:19:45;;;;;;;6.88;2.30;;;;;;;7.83;79.75;97848.97;5059735;28;20044;-59
2023/10/16 02:22:16;;;;;;;7.20;2.70;;;;;;;7.83;79.93;97860.31;5094566;28;20036;-60
2023/10/16 02:24:44;;;;;;;6.25;2.40;;;;;;;7.87;80.08;97860.59;5076130;28;20047;-59
2023/10/16 02:27:12;;;;;;;5.20;2.20;;;;;;;7.86;79.43;97853.72;5076004;28;20048;-59
2023/10/16 02:29:45;;;;;;;4.90;2.15;;;;;;;7.86;79.74;97851.88;5076290;28;20039;-59
2023/10/16 02:32:12;;;;;;;7.68;2.28;;;;;;;7.85;79.48;97868.78;5055615;28;20052;-59
2023/10/16 02:34:38;;;;;;;4.85;2.20;;;;;;;7.86;79.75;97867.72;5056133;28;20549;-59
2023/10/16 02:37:06;;;;;;;9.18;2.60;;;;;;;7.88;79.55;97870.91;5081480;28;20078;-61
2023/10/16 02:39:35;;;;;;;8.20;2.40;;;;;;;7.87;79.90;97865.84;5059099;28;20044;-61
2023/10/16 02:42:11;;;;;;;8.52;2.63;;;;;;;7.89;79.90;97867.19;5093448;28;20047;-61
2023/10/16 02:44:42;;;;;;;8.13;3.70;;;;;;;7.89;80.31;97869.84;5093041;28;20067;-60
2023/10/16 02:47:26;;;;;;;4.65;2.63;;;;;;;7.90;80.27;97874.03;5093565;28;20504;-61
2023/10/16 02:49:52;;;;;;;4.38;2.38;;;;;;;7.88;80.49;97873.53;5075898;28;20082;-60
2023/10/16 02:52:19;;;;;;;7.63;2.83;;;;;;;7.91;80.35;97873.03;5075703;28;20078;-59
2023/10/16 02:54:46;;;;;;;6.53;2.55;;;;;;;7.96;79.66;97873.03;5075423;28;20092;-60
2023/10/16 02:57:12;;;;;;;9.77;2.25;;;;;;;7.93;79.76;97876.16;5092780;28;20128;-59
2023/10/16 02:59:43;;;;;;;6.18;2.25;;;;;;;7.97;80.00;97882.53;5075502;28;20082;-59
2023/10/16 03:02:22;;;;;;;5.47;2.70;;;;;;;7.97;79.16;97887.00;5093806;28;20039;-60
2023/10/16 03:04:51;;;;;;;8.13;2.35;;;;;;;7.93;79.19;97884.09;5093516;28;20044;-60
2023/10/16 03:07:21;;;;;;;5.55;2.20;;;;;;;7.93;79.15;97889.38;5093350;28;20043;-60
2023/10/16 03:09:49;;;;;;;5.17;2.30;;;;;;;7.91;79.56;97886.22;5071642;28;20137;-59
2023/10/16 03:12:19;;;;;;;7.32;2.15;;;;;;;7.92;79.30;97879.88;5073373;28;20045;-60
2023/10/16 03:14:46;;;;;;;6.60;2.45;;;;;;;7.88;79.74;97891.19;5071667;28;20493;-59
2023/10/16 03:17:22;;;;;;;6.75;2.28;;;;;;;7.90;79.82;97897.00;5073299;28;20045;-60
2023/10/16 03:19:48;;;;;;;6.95;2.47;;;;;;;7.93;79.66;97886.72;5072025;28;20044;-58
2023/10/16 03:22:16;;;;;;;5.78;2.70;;;;;;;7.91;79.09;97877.47;5070803;28;20051;-60
2023/10/16 03:24:43;;;;;;;5.70;2.50;;;;;;;7.89;79.78;97880.38;5071806;28;20131;-60
2023/10/16 03:27:08;;;;;;;4.97;2.20;;;;;;;7.87;79.77;97871.91;5071655;28;20040;-60
2023/10/16 03:29:35;;;;;;;4.90;2.33;;;;;;;7.88;79.63;97865.63;5072621;28;20051;-60
2023/10/16 03:32:02;;;;;;;5.38;2.40;;;;;;;7.87;79.53;97871.13;5072468;28;20127;-60
2023/10/16 03:34:31;;;;;;;8.27;2.33;;;;;;;7.86;80.03;97872.19;5072643;28;20082;-60
2023/10/16 03:37:04;;;;;;;5.97;2.40;;;;;;;7.88;79.34;97856.88;5072923;28;20090;-60
2023/10/16 03:39:31;;;;;;;5.32;2.55;;;;;;;7.88;79.38;97868.25;5072464;28;20045;-61
2023/10/16 03:41:57;;;;;;;7.40;3.00;;;;;;;7.80;80.16;97873.22;5072778;28;20045;-59
2023/10/16 03:44:26;;;;;;;4.97;2.30;;;;;;;7.85;79.62;97860.03;5071010;28;20068;-60
2023/10/16 03:46:55;;;;;;;3.83;2.40;;;;;;;7.89;79.86;97858.50;5072705;28;20127;-59
2023/10/16 03:49:21;;;;;;;6.93;2.40;;;;;;;7.91;79.33;97859.00;5071128;28;20045;-59
2023/10/16 03:51:48;;;;;;;7.13;2.70;;;;;;;7.91;79.50;97859.81;5072928;28;20056;-60
2023/10/16 03:54:16;;;;;;;6.70;2.50;;;;;;;7.94;79.65;97858.50;5071133;28;20040;-61
2023/10/16 03:56:42;;;;;;;5.45;2.90;;;;;;;7.90;79.45;97842.38;5071645;28;20106;-61
2023/10/16 03:59:11;;;;;;;5.25;2.53;;;;;;;7.85;79.18;97846.84;5072109;28;20505;-60
2023/10/16 04:01:39;;;;;;;8.00;2.60;;;;;;;7.78;79.81;97841.81;5072141;28;20041;-59
2023/10/16 04:04:12;;;;;;;5.43;2.72;;;;;;;7.71;80.01;97852.59;5070980;28;20385;-60
2023/10/16 04:06:39;;;;;;;8.10;2.60;;;;;;;7.78;80.37;97859.47;5072312;28;20555;-60
2023/10/16 04:09:06;;;;;;;3.88;2.40;;;;;;;7.84;79.84;97861.88;5069798;28;20113;-59
2023/10/16 04:11:32;;;;;;;7.05;2.95;;;;;;;7.73;79.83;97855.78;5037579;28;20058;-61
2023/10/16 04:13:59;;;;;;;6.45;2.60;;;;;;;7.73;80.41;97855.78;5086098;28;20044;-61
2023/10/16 04:16:42;;;;;;;12.95;2.92;;;;;;;7.78;80.01;97852.34;5092266;28;20097;-60
2023/10/16 04:21:45;;;;;;;10.32;2.60;;;;;;;7.88;79.41;97854.25;5090894;28;20505;-60
2023/10/16 04:32:27;;;;;;;7.03;2.80;;;;;;;7.81;79.26;97851.06;5073690;28;20119;-60
2023/10/16 04:34:54;;;;;;;7.53;2.97;;;;;;;7.79;79.22;97851.31;5073668;28;20051;-61
2023/10/16 04:37:29;;;;;;;6.22;2.53;;;;;;;7.81;79.78;97851.06;5090455;28;20045;-60
2023/10/16 04:53:12;;;;;;;5.82;2.30;;;;;;;7.77;79.77;97850.78;5091680;28;20460;-61
2023/10/16 05:03:24;;;;;;;4.93;2.92;;;;;;;7.73;79.87;97842.59;5073023;28;20387;-58
2023/10/16 05:05:56;;;;;;;7.90;3.03;;;;;;;7.74;79.80;97840.75;5091477;28;20040;-60
2023/10/16 06:14:14;;;;;;;5.28;2.35;;;;;;;8.29;77.23;97823.50;5063663;28;20068;-59
2023/10/16 06:16:47;;;;;;;8.43;2.88;;;;;;;8.34;77.49;97828.03;5090219;28;20546;-58
2023/10/16 06:19:14;;;;;;;6.40;2.70;;;;;;;8.39;77.29;97836.00;5072850;28;20047;-61
2023/10/16 06:21:56;;;;;;;7.30;2.95;;;;;;;8.41;77.49;97839.16;5094086;28;20055;-60
2023/10/16 06:24:35;;;;;;;6.55;3.05;;;;;;;8.47;77.14;97834.66;5093767;28;20046;-61
2023/10/16 06:27:10;;;;;;;6.68;3.10;;;;;;;8.46;76.54;97831.25;5084718;28;20045;-60
2023/10/16 06:29:58;;;;;;;10.93;3.42;;;;;;;8.47;76.11;97834.66;5070747;28;20047;-59
2023/10/16 06:32:35;;;;;;;5.65;2.58;;;;;;;8.41;75.93;97832.03;5078697;28;20054;-58
2023/10/16 06:35:02;;;;;;;6.75;2.85;;;;;;;8.36;76.13;97845.19;5091953;28;20031;-61
2023/10/16 06:37:34;;;;;;;4.97;2.20;;;;;;;8.43;76.87;97838.91;5059976;28;20040;-59
2023/10/16 06:40:15;;;;;;;7.28;2.60;;;;;;;8.45;77.19;97842.09;5093298;28;20036;-59
2023/10/16 06:42:47;;;;;;;7.45;2.67;;;;;;;8.40;75.95;97842.84;5075873;28;20043;-61
2023/10/16 06:45:19;;;;;;;8.43;3.20;;;;;;;8.36;77.04;97834.63;5093049;28;20031;-60
2023/10/16 06:47:49;;;;;;;6.93;2.80;;;;;;;8.38;77.28;97835.22;5075667;28;20036;-60
2023/10/16 06:53:00;;;;;;;8.60;2.60;;;;;;;8.49;76.39;97835.22;5093532;28;20092;-59
2023/10/16 06:55:26;;;;;;;7.05;2.70;;;;;;;8.50;76.39;97840.25;5090923;28;20055;-61
2023/10/16 06:57:51;;;;;;;7.32;2.58;;;;;;;8.57;76.27;97830.22;5075716;28;20126;-60
2023/10/16 07:00:27;;;;;;;5.55;2.80;;;;;;;8.64;76.24;97833.38;5075519;28;20253;-60
2023/10/16 07:02:54;;;;;;;4.93;2.70;;;;;;;8.67;74.88;97834.69;5093530;28;20043;-58
2023/10/16 07:08:08;;;;;;;9.52;2.65;;;;;;;8.69;74.75;97822.03;5093511;28;20036;-59
2023/10/16 07:10:34;;;;;;;7.97;2.92;;;;;;;8.69;75.42;97808.81;5079854;28;20063;-60
2023/10/16 07:13:00;;;;;;;5.22;2.63;;;;;;;8.69;75.89;97814.09;5092951;28;20050;-61
2023/10/16 07:15:29;;;;;;;7.75;3.13;;;;;;;8.65;74.90;97815.69;5092803;28;20071;-59
2023/10/16 07:17:56;;;;;;;9.77;3.15;;;;;;;8.70;75.08;97818.31;5089154;28;20036;-58
2023/10/16 07:20:28;;;;;;;12.50;2.97;;;;;;;8.72;75.86;97818.88;5074628;28;20126;-56
2023/10/16 07:23:01;;;;;;;7.03;2.92;;;;;;;8.77;75.11;97818.88;5090296;28;20444;-60
2023/10/16 07:28:12;;;;;;;7.53;3.03;;;;;;;8.82;73.92;97812.78;5076751;28;20557;-59
2023/10/16 07:30:44;;;;;;;7.75;2.80;;;;;;;8.83;73.29;97814.38;5092216;28;20127;-60
2023/10/16 07:33:16;;;;;;;10.45;3.13;;;;;;;8.78;73.49;97807.25;5092206;28;20036;-59
2023/10/16 07:35:46;;;;;;;7.45;3.42;;;;;;;8.82;75.10;97800.38;5092549;28;20536;-60
2023/10/16 07:38:19;;;;;;;7.57;2.60;;;;;;;8.85;74.19;97799.84;5057669;28;20040;-60
2023/10/16 07:40:55;;;;;;;6.57;3.08;;;;;;;8.83;74.89;97799.31;5092628;28;20040;-60
2023/10/16 07:43:29;;;;;;;6.70;3.20;;;;;;;8.81;74.08;97801.44;5090822;28;20035;-60
2023/10/16 07:48:41;;;;;;;7.45;2.63;;;;;;;8.68;75.11;97794.03;5072271;28;20036;-60
2023/10/16 07:51:07;;;;;;;8.07;3.20;;;;;;;8.74;74.07;97798.28;5074428;28;20044;-60
2023/10/16 07:53:34;;;;;;;7.10;3.10;;;;;;;8.76;74.85;97800.63;5092169;28;20039;-61
2023/10/16 07:56:02;;;;;;;5.85;2.72;;;;;;;8.75;75.00;97791.13;5091823;28;20044;-60
2023/10/16 07:58:33;;;;;;;7.05;3.30;;;;;;;8.77;75.66;97789.03;5091601;28;20077;-61
2023/10/16 08:03:37;;;;;;;6.43;3.40;;;;;;;8.60;75.26;97782.13;5091954;28;20055;-61
2023/10/16 08:06:06;;;;;;;5.80;3.17;;;;;;;8.64;74.96;97785.84;5092612;28;20070;-60
2023/10/16 08:08:38;;;;;;;11.10;3.40;;;;;;;8.67;75.33;97773.94;5092245;28;20047;-59
2023/10/16 08:11:14;;;;;;;7.88;3.10;;;;;;;8.65;74.77;97784.00;5054022;28;20417;-61
2023/10/16 08:13:46;;;;;;;8.52;3.30;;;;;;;8.65;75.27;97776.09;5078006;28;20382;-60
2023/10/16 08:16:24;;;;;;;7.47;3.25;;;;;;;8.72;76.15;97779.25;5092090;28;20411;-60
2023/10/16 08:18:57;;;;;;;8.50;3.38;;;;;;;8.74;75.53;97777.13;5091786;28;20040;-60
2023/10/16 08:21:26;;;;;;;7.25;3.42;;;;;;;8.69;74.50;97768.41;5074545;28;20057;-59
2023/10/16 08:23:55;;;;;;;8.95;3.30;;;;;;;8.71;75.65;97775.03;5091517;28;20379;-60
2023/10/16 08:26:30;;;;;;;8.30;2.83;;;;;;;8.80;76.89;97765.50;5092268;28;20044;-60
2023/10/16 08:29:51;;;;;;;6.80;2.75;;;;;;;8.76;75.12;97768.94;5091538;28;20639;-58
2023/10/16 08:34:35;;;;;;;9.68;3.47;;;;;;;8.80;76.07;97760.22;5039931;28;20048;-61
2023/10/16 08:37:04;;;;;;;7.90;3.28;;;;;;;8.86;75.33;97761.81;5078554;28;20042;-61
2023/10/16 08:39:36;;;;;;;8.98;3.88;;;;;;;8.83;75.26;97754.41;5073645;28;20461;-61
2023/10/16 08:42:18;;;;;;;7.35;3.53;;;;;;;8.78;76.18;97749.13;5072920;28;20120;-61
2023/10/16 08:44:46;;;;;;;9.60;3.22;;;;;;;8.84;77.41;97739.34;5073687;28;20047;-63
2023/10/16 08:47:16;;;;;;;8.30;3.50;;;;;;;8.93;77.00;97752.81;5073581;28;20044;-62
2023/10/16 08:49:52;;;;;;;4.78;3.22;;;;;;;8.92;75.79;97749.38;5057209;28;20574;-61
2023/10/16 08:52:22;;;;;;;9.98;3.50;;;;;;;8.96;76.09;97752.28;5075069;28;20071;-62
2023/10/16 08:57:27;;;;;;;10.77;3.75;;;;;;;8.89;76.00;97749.91;5091828;28;20061;-62
2023/10/16 08:59:58;;;;;;;7.40;3.60;;;;;;;8.91;75.74;97758.34;5091271;28;20406;-61
2023/10/16 09:02:26;;;;;;;9.68;3.45;;;;;;;8.84;74.78;97755.19;5091181;28;20055;-61
2023/10/16 09:04:55;;;;;;;10.13;4.78;;;;;;;8.83;75.74;97754.41;5072886;28;20089;-62
2023/10/16 09:07:23;;;;;;;7.25;4.10;;;;;;;8.89;76.20;97759.69;5091740;28;20050;-62
2023/10/16 09:09:49;;;;;;;7.30;3.78;;;;;;;8.92;75.66;97759.16;5062392;28;20083;-62
2023/10/16 09:12:27;;;;;;;10.82;4.38;;;;;;;8.82;76.25;97754.66;5062513;28;20040;-62
2023/10/16 09:15:05;;;;;;;7.90;3.80;;;;;;;8.83;75.48;97754.41;5072996;28;20093;-63
2023/10/16 09:17:34;;;;;;;7.53;4.30;;;;;;;8.70;75.78;97756.78;5091366;28;20130;-63
2023/10/16 09:20:02;;;;;;;9.07;3.70;;;;;;;8.70;76.85;97752.28;5091180;28;20067;-62
2023/10/16 09:22:30;;;;;;;10.18;4.07;;;;;;;8.81;76.70;97745.16;5073337;28;20056;-61
2023/10/16 09:24:55;;;;;;;9.35;3.65;;;;;;;8.83;76.50;97749.13;5090719;28;20145;-62
2023/10/16 09:27:30;;;;;;;11.50;4.40;;;;;;;8.84;76.41;97742.78;5091566;28;20044;-59
2023/10/16 09:30:00;;;;;;;9.77;4.50;;;;;;;8.82;77.38;97739.63;5090725;28;20044;-59
2023/10/16 09:32:35;;;;;;;8.57;4.57;;;;;;;8.90;77.49;97743.56;5091211;28;20051;-61
2023/10/16 09:35:06;;;;;;;7.60;4.18;;;;;;;8.86;75.51;97740.66;5056955;28;20092;-60
2023/10/16 09:37:35;;;;;;;8.25;4.68;;;;;;;8.77;78.19;97739.63;5090861;28;20051;-61
2023/10/16 09:40:35;;;;;;;11.10;4.35;;;;;;;8.85;78.31;97739.09;5072804;28;20055;-63
2023/10/16 09:43:05;;;;;;;13.18;4.43;;;;;;;8.84;76.91;97734.06;5071234;28;20483;-62
2023/10/16 09:45:33;;;;;;;8.27;4.50;;;;;;;8.83;77.03;97732.47;5057522;28;20040;-59
2023/10/16 09:48:07;;;;;;;8.73;4.90;;;;;;;8.85;77.98;97736.44;5090367;28;20081;-59
2023/10/16 09:50:37;;;;;;;7.45;4.28;;;;;;;8.85;77.69;97725.88;5090703;28;20111;-61
2023/10/16 09:53:07;;;;;;;;;;;;;;;8.94;78.62;97730.59;5090816;28;20051;-62
2023/10/16 09:55:44;;;;;;;12.15;5.07;;;;;;;8.98;78.79;97731.66;5092865;28;19958;-62
2023/10/16 09:58:11;;;;;;;10.45;4.20;;;;;;;9.00;78.16;97733.00;5094265;28;20035;-61
2023/10/16 10:00:44;;;;;;;7.55;3.72;;;;;;;9.03;77.30;97731.63;5095004;28;20048;-61
2023/10/16 10:03:13;;;;;;;8.25;4.20;;;;;;;9.04;77.26;97734.03;5094144;28;20040;-61
2023/10/16 10:06:34;;;;;;;9.57;3.80;;;;;;;9.02;78.38;97728.22;5094553;28;20134;-61
2023/10/16 10:11:44;;;;;;;8.85;3.88;;;;;;;9.03;78.14;97731.63;5059383;28;20152;-60
2023/10/16 10:17:04;;;;;;;7.57;3.67;;;;;;;9.08;77.67;97727.13;5041559;28;20055;-58
2023/10/16 10:19:41;;;;;;;5.45;3.47;;;;;;;9.08;78.24;97726.34;5050864;28;20437;-58
2023/10/16 10:22:33;;;;;;;6.03;3.70;;;;;;;8.98;78.07;97726.38;5070569;28;20036;-61
2023/10/16 10:25:35;;;;;;;6.85;3.80;;;;;;;9.02;78.38;97725.56;5073107;28;20059;-60
2023/10/16 10:28:11;;;;;;;7.68;3.80;;;;;;;9.03;77.01;97729.81;5063816;28;20050;-58
2023/10/16 10:30:43;;;;;;;5.95;3.83;;;;;;;8.93;78.94;97713.16;5072468;28;20106;-59
2023/10/16 10:33:11;;;;;;;9.68;4.22;;;;;;;8.89;80.72;97718.19;5055366;28;20539;-61
2023/10/16 10:35:43;;;;;;;7.65;3.80;;;;;;;8.91;79.11;97712.63;5073799;28;20047;-60
2023/10/16 10:38:21;;;;;;;7.47;4.18;;;;;;;8.98;80.23;97713.16;5073251;28;20084;-60
2023/10/16 10:41:11;;;;;;;7.10;3.78;;;;;;;9.00;78.85;97708.38;5073588;28;20036;-59
2023/10/16 10:43:46;;;;;;;7.57;4.00;;;;;;;8.96;79.03;97710.00;5072082;28;20169;-60
2023/10/16 10:46:14;;;;;;;5.07;3.63;;;;;;;8.82;78.33;97699.19;5073306;28;20040;-60
2023/10/16 10:48:43;;;;;;;9.75;4.35;;;;;;;8.85;81.17;97704.75;5073395;28;20045;-60
2023/10/16 10:51:18;;;;;;;6.30;3.80;;;;;;;8.83;80.19;97698.91;5073286;28;20070;-60
2023/10/16 10:53:54;;;;;;;7.80;3.90;;;;;;;8.82;81.64;97692.06;5056511;28;20032;-60
2023/10/16 10:56:20;;;;;;;7.93;4.03;;;;;;;8.77;81.04;97689.41;5072645;28;20397;-58
2023/10/16 10:58:47;;;;;;;7.25;3.75;;;;;;;8.64;82.27;97693.38;5073015;28;20044;-59
2023/10/16 11:01:16;;;;;;;4.55;3.70;;;;;;;8.63;80.86;97689.16;5072961;28;21299;-61
2023/10/16 11:03:46;;;;;;;7.53;4.23;;;;;;;8.72;81.79;97680.72;5069493;28;20097;-61
2023/10/16 11:06:18;;;;;;;6.63;3.75;;;;;;;8.69;79.65;97681.25;5071649;28;20121;-58
2023/10/16 11:08:48;;;;;;;7.18;3.72;;;;;;;8.69;81.64;97681.25;5068373;28;20420;-59
2023/10/16 11:11:15;;;;;;;7.57;4.13;;;;;;;8.81;81.82;97684.38;5059631;28;20091;-59
2023/10/16 11:13:48;;;;;;;8.10;5.07;;;;;;;8.91;81.60;97678.28;5094812;28;20075;-60
2023/10/16 11:16:15;;;;;;;7.60;3.78;;;;;;;8.89;79.84;97667.22;5093051;28;20082;-60
2023/10/16 11:18:56;;;;;;;9.13;4.28;;;;;;;8.94;80.78;97664.53;5058160;28;20169;-59
2023/10/16 11:21:25;;;;;;;8.32;4.40;;;;;;;8.99;80.46;97667.97;5093239;28;20047;-58
2023/10/16 11:23:55;;;;;;;7.88;3.90;;;;;;;8.98;81.33;97669.03;5093189;28;20047;-62
2023/10/16 11:26:27;;;;;;;7.45;4.53;;;;;;;9.01;81.37;97667.69;5093148;28;20044;-60
2023/10/16 11:28:54;;;;;;;5.82;3.85;;;;;;;8.98;80.74;97661.09;5075502;28;20036;-60
2023/10/16 11:31:21;;;;;;;7.88;4.18;;;;;;;8.96;80.71;97659.78;5092802;28;20040;-59
2023/10/16 11:34:00;;;;;;;7.78;4.22;;;;;;;8.95;80.85;97658.22;5092997;28;20048;-61
2023/10/16 11:36:28;;;;;;;8.18;5.10;;;;;;;8.89;80.84;97659.28;5074838;28;20051;-60
2023/10/16 11:39:06;;;;;;;9.95;5.70;;;;;;;8.78;79.62;97663.78;5093253;28;20123;-60
2023/10/16 11:41:33;;;;;;;8.20;5.60;;;;;;;8.80;80.98;97659.03;5092877;28;20044;-59
2023/10/16 11:44:03;;;;;;;10.65;6.57;;;;;;;8.81;81.22;97653.47;5093152;28;20044;-59
2023/10/16 11:46:31;;;;;;;12.63;6.95;;;;;;;8.82;81.15;97643.69;5058676;28;20063;-60
2023/10/16 11:52:08;;;;;;;9.95;6.28;;;;;;;8.86;79.94;97645.53;5058951;28;20040;-60
2023/10/16 11:54:36;;;;;;;10.82;6.00;;;;;;;8.84;80.40;97641.59;5089908;28;20043;-60
2023/10/16 11:57:02;;;;;;;8.55;6.20;;;;;;;8.87;80.33;97647.13;5092563;28;20122;-59
2023/10/16 11:59:29;;;;;;;12.15;5.50;;;;;;;8.87;80.60;97644.47;5074171;28;20032;-61
2023/10/16 12:02:10;;;;;;;8.50;5.75;;;;;;;8.87;80.65;97636.53;5091804;28;20047;-60
2023/10/16 12:04:37;;;;;;;7.07;4.60;;;;;;;8.87;79.45;97633.13;5089402;28;20040;-57
2023/10/16 12:07:03;;;;;;;6.15;4.20;;;;;;;8.86;79.80;97634.19;5091509;28;20040;-60
2023/10/16 12:09:36;;;;;;;5.45;4.38;;;;;;;8.85;79.56;97633.41;5071803;28;20559;-60
2023/10/16 12:12:06;;;;;;;7.30;4.15;;;;;;;8.86;79.45;97634.97;5091531;28;20105;-60
2023/10/16 12:14:37;;;;;;;9.77;4.23;;;;;;;8.80;79.60;97632.63;5088926;28;20048;-59
2023/10/16 12:17:07;;;;;;;10.95;5.00;;;;;;;8.77;80.19;97633.16;5091610;28;20048;-60
2023/10/16 12:19:33;;;;;;;9.55;5.28;;;;;;;8.78;80.41;97637.38;5092252;28;20111;-58
2023/10/16 12:22:00;;;;;;;5.35;4.47;;;;;;;8.74;79.93;97631.06;5091285;28;20075;-61
2023/10/16 12:24:26;;;;;;;6.07;4.03;;;;;;;8.71;80.00;97628.94;5073523;28;20143;-60
2023/10/16 12:26:52;;;;;;;7.55;4.60;;;;;;;8.66;80.65;97631.59;5091613;28;20043;-60
2023/10/16 12:29:18;;;;;;;9.55;4.68;;;;;;;8.64;80.63;97632.63;5073333;28;20127;-59
2023/10/16 12:31:44;;;;;;;7.43;4.50;;;;;;;8.66;81.03;97634.22;5073154;28;20043;-61
2023/10/16 12:34:11;;;;;;;12.48;5.30;;;;;;;8.68;81.02;97632.91;5088687;28;20040;-59
2023/10/16 12:36:38;;;;;;;10.35;4.43;;;;;;;8.69;80.68;97628.41;5091258;28;20126;-61
2023/10/16 12:39:13;;;;;;;6.32;4.00;;;;;;;8.65;81.13;97633.44;5091606;28;20542;-60
2023/10/16 12:41:41;;;;;;;6.00;4.25;;;;;;;8.66;80.91;97632.38;5089819;28;20044;-60
2023/10/16 12:44:09;;;;;;;8.10;4.90;;;;;;;8.70;81.22;97636.06;5091535;28;20071;-60
2023/10/16 12:46:38;;;;;;;8.15;4.70;;;;;;;8.72;80.77;97641.09;5073138;28;20536;-61
2023/10/16 12:49:07;;;;;;;8.18;4.60;;;;;;;8.54;80.37;97618.69;5091163;28;20074;-59
2023/10/16 12:51:34;;;;;;;8.65;5.10;;;;;;;8.71;80.28;97647.44;5074176;28;20040;-59
2023/10/16 12:54:03;;;;;;;10.48;6.10;;;;;;;8.71;80.76;97642.16;5091364;28;20082;-58
2023/10/16 12:56:31;;;;;;;9.10;5.13;;;;;;;8.71;80.25;97644.78;5073465;28;20051;-60
2023/10/16 12:59:00;;;;;;;9.07;4.97;;;;;;;8.72;80.18;97641.09;5091472;28;20088;-60
2023/10/16 13:01:26;;;;;;;8.80;4.85;;;;;;;8.68;80.46;97645.31;5073341;28;20040;-60
2023/10/16 13:03:55;;;;;;;11.65;5.63;;;;;;;8.62;80.54;97628.69;5073306;28;20248;-60
2023/10/16 13:06:26;;;;;;;10.95;5.07;;;;;;;8.62;80.21;97637.41;5090429;28;20071;-62
2023/10/16 13:08:51;;;;;;;9.35;5.20;;;;;;;8.62;80.88;97634.78;5088584;28;20044;-60
2023/10/16 13:11:17;;;;;;;8.80;5.20;;;;;;;8.59;80.65;97631.88;5091050;28;20036;-60
2023/10/16 13:13:45;;;;;;;9.75;5.32;;;;;;;8.55;81.20;97636.88;5091159;28;20056;-59
2023/10/16 13:16:11;;;;;;;8.30;5.20;;;;;;;8.50;81.54;97631.63;5090765;28;20040;-61
2023/10/16 13:18:36;;;;;;;11.23;5.43;;;;;;;8.46;81.51;97635.06;5091001;28;20536;-61
2023/10/16 13:21:12;;;;;;;9.07;5.07;;;;;;;8.41;82.45;97631.38;5091254;28;20526;-62
2023/10/16 13:23:39;;;;;;;10.75;5.18;;;;;;;8.41;81.75;97626.09;5091282;28;20050;-59
2023/10/16 13:26:07;;;;;;;10.25;5.35;;;;;;;8.40;82.34;97636.91;5091153;28;20134;-60
2023/10/16 13:28:41;;;;;;;8.48;5.20;;;;;;;8.36;82.80;97633.97;5091111;28;20505;-60
2023/10/16 13:31:08;;;;;;;10.85;5.07;;;;;;;8.34;83.54;97637.94;5073397;28;20179;-60
2023/10/16 13:33:35;;;;;;;8.38;4.55;;;;;;;8.32;82.83;97640.81;5091206;28;20055;-60
2023/10/16 13:36:04;;;;;;;11.02;5.75;;;;;;;8.32;82.92;97640.03;5090984;28;20048;-60
2023/10/16 13:38:31;;;;;;;10.18;5.35;;;;;;;8.28;83.74;97639.78;5090733;28;20081;-60
2023/10/16 13:40:58;;;;;;;9.48;5.13;;;;;;;8.28;83.05;97644.28;5090145;28;20040;-60
2023/10/16 13:43:24;;;;;;;15.70;5.30;;;;;;;8.23;82.60;97637.13;5090669;28;20047;-60
2023/10/16 13:45:52;;;;;;;8.18;4.97;;;;;;;8.20;83.70;97645.59;5090691;28;20048;-61
2023/10/16 13:48:21;;;;;;;8.45;4.95;;;;;;;8.11;83.45;97641.91;5090812;28;20040;-61
2023/10/16 13:50:48;;;;;;;10.15;5.40;;;;;;;8.05;82.80;97642.94;5090983;28;20040;-60
2023/10/16 13:53:15;;;;;;;7.75;4.75;;;;;;;8.06;83.46;97642.69;5090998;28;20036;-60
2023/10/16 13:55:40;;;;;;;8.15;5.10;;;;;;;8.02;84.04;97654.03;5089925;28;20093;-59
2023/10/16 13:58:06;;;;;;;10.93;5.47;;;;;;;8.04;83.86;97662.50;5089996;28;20040;-60
2023/10/16 14:00:35;;;;;;;11.50;5.80;;;;;;;8.03;84.28;97652.97;5090574;28;20550;-61